Time;durP1;ratioP1;P1;durP2;ratioP2;P2;SDS_P1;SDS_P2;PMS_P1;PMS_P2;Temp;Humidity;BMP_temperature;BMP_pressure;BME280_temperature;BME280_humidity;BME280_pressure;Samples;Min_cycle;Max_cycle;Signal;HPM_P1;HPM_P2
2020/12/13 00:01:26;0.00;0.00;0.62;0.00;0.00;0.62;1.70;1.50;;;20.70;29.10;;;;;;2266160;61;20463;-60
2020/12/13 00:04:11;0.00;0.00;0.62;0.00;0.00;0.62;1.50;1.27;;;20.80;29.20;;;;;;2265973;61;20365;-60
2020/12/13 00:06:55;0.00;0.00;0.62;0.00;0.00;0.62;2.57;1.60;;;20.80;29.20;;;;;;2265658;61;20380;-60
2020/12/13 00:09:40;0.00;0.00;0.62;0.00;0.00;0.62;1.70;1.40;;;20.80;29.20;;;;;;2265881;61;20623;-60
2020/12/13 00:12:25;0.00;0.00;0.62;0.00;0.00;0.62;2.20;1.70;;;20.70;29.10;;;;;;2265923;61;20360;-60
2020/12/13 00:15:11;0.00;0.00;0.62;0.00;0.00;0.62;1.70;1.40;;;20.80;29.20;;;;;;2265700;61;20465;-60
2020/12/13 00:17:56;0.00;0.00;0.62;0.00;0.00;0.62;1.40;1.17;;;20.70;29.20;;;;;;2265732;61;20389;-60
2020/12/13 00:20:40;0.00;0.00;0.62;0.00;0.00;0.62;1.80;1.60;;;20.70;29.20;;;;;;2265675;61;20385;-60
2020/12/13 00:23:25;0.00;0.00;0.62;0.00;0.00;0.62;2.60;2.33;;;20.70;29.20;;;;;;2265880;61;20431;-60
2020/12/13 00:26:11;0.00;0.00;0.62;0.00;0.00;0.62;2.83;2.63;;;20.80;29.20;;;;;;2265778;61;20432;-60
2020/12/13 00:28:56;0.00;0.00;0.62;0.00;0.00;0.62;3.20;2.70;;;20.70;29.10;;;;;;2265577;61;20416;-60
2020/12/13 00:31:42;0.00;0.00;0.62;0.00;0.00;0.62;3.07;2.67;;;20.80;29.10;;;;;;2265758;61;20377;-60
2020/12/13 00:34:26;0.00;0.00;0.62;0.00;0.00;0.62;3.57;3.27;;;20.70;29.10;;;;;;2265833;61;20390;-60
2020/12/13 00:37:11;0.00;0.00;0.62;0.00;0.00;0.62;5.03;3.13;;;20.70;29.00;;;;;;2265481;61;20442;-60
2020/12/13 00:39:56;0.00;0.00;0.62;0.00;0.00;0.62;3.83;3.17;;;20.70;29.00;;;;;;2265815;61;20365;-60
2020/12/13 00:42:41;0.00;0.00;0.62;0.00;0.00;0.62;6.00;3.73;;;20.70;29.60;;;;;;2265806;61;20358;-60
2020/12/13 00:45:26;0.00;0.00;0.62;0.00;0.00;0.62;4.90;3.40;;;20.70;29.10;;;;;;2265798;61;20407;-60
2020/12/13 00:48:11;0.00;0.00;0.62;0.00;0.00;0.62;4.50;3.23;;;20.70;29.20;;;;;;2265701;61;20374;-60
2020/12/13 00:50:56;0.00;0.00;0.62;0.00;0.00;0.62;5.77;3.80;;;20.70;29.20;;;;;;2265681;61;20408;-60
2020/12/13 00:53:40;0.00;0.00;0.62;0.00;0.00;0.62;6.50;4.20;;;20.70;29.30;;;;;;2261390;61;20455;-59
2020/12/13 00:56:25;0.00;0.00;0.62;0.00;0.00;0.62;3.37;2.80;;;20.70;29.30;;;;;;2265641;61;20400;-59
2020/12/13 00:59:12;0.00;0.00;0.62;0.00;0.00;0.62;8.83;2.73;;;20.70;29.90;;;;;;2262269;61;20377;-60
2020/12/13 01:01:57;0.00;0.00;0.62;0.00;0.00;0.62;4.43;3.03;;;20.70;29.40;;;;;;2265091;61;20400;-60
2020/12/13 01:04:42;0.00;0.00;0.62;0.00;0.00;0.62;4.23;3.57;;;20.70;29.40;;;;;;2265643;61;20361;-60
2020/12/13 01:07:27;0.00;0.00;0.62;0.00;0.00;0.62;5.27;3.53;;;20.70;29.40;;;;;;2265527;61;20368;-60
2020/12/13 01:10:12;0.00;0.00;0.62;0.00;0.00;0.62;2.70;2.37;;;20.70;29.40;;;;;;2265345;61;20393;-60
2020/12/13 01:12:57;0.00;0.00;0.62;0.00;0.00;0.62;5.07;2.80;;;20.70;29.40;;;;;;2265302;61;20357;-60
2020/12/13 01:15:41;0.00;0.00;0.62;0.00;0.00;0.62;3.70;2.90;;;20.70;29.40;;;;;;2265326;61;20710;-60
2020/12/13 01:18:26;0.00;0.00;0.62;0.00;0.00;0.62;4.53;2.63;;;20.70;29.40;;;;;;2265598;61;20420;-59
2020/12/13 01:21:16;0.00;0.00;0.62;0.00;0.00;0.62;4.50;2.27;;;20.70;29.40;;;;;;2265454;61;20582;-60
2020/12/13 01:24:01;0.00;0.00;0.62;0.00;0.00;0.62;3.80;2.90;;;20.70;29.50;;;;;;2265248;61;20424;-60
2020/12/13 01:26:46;0.00;0.00;0.62;0.00;0.00;0.62;5.70;2.40;;;20.70;29.50;;;;;;2265541;61;20396;-60
2020/12/13 01:29:30;0.00;0.00;0.62;0.00;0.00;0.62;3.17;2.50;;;20.70;29.50;;;;;;2265408;61;20453;-59
2020/12/13 01:32:15;0.00;0.00;0.62;0.00;0.00;0.62;3.47;2.63;;;20.70;29.50;;;;;;2265262;61;20385;-60
2020/12/13 01:34:59;0.00;0.00;0.62;0.00;0.00;0.62;3.07;2.80;;;20.70;29.50;;;;;;2264980;61;20643;-60
2020/12/13 01:37:45;0.00;0.00;0.62;0.00;0.00;0.62;3.83;2.87;;;20.70;29.50;;;;;;2262047;61;20395;-60
2020/12/13 01:40:30;0.00;0.00;0.62;0.00;0.00;0.62;2.63;2.40;;;20.70;29.50;;;;;;2265623;61;20365;-60
2020/12/13 01:43:14;0.00;0.00;0.62;0.00;0.00;0.62;2.60;2.37;;;20.70;29.50;;;;;;2262227;61;20383;-60
2020/12/13 01:45:59;0.00;0.00;0.62;0.00;0.00;0.62;2.73;2.30;;;20.70;29.50;;;;;;2265277;61;20365;-60
2020/12/13 01:48:43;0.00;0.00;0.62;0.00;0.00;0.62;3.57;2.40;;;20.70;29.50;;;;;;2265512;61;20372;-60
2020/12/13 01:51:49;0.00;0.00;0.62;0.00;0.00;0.62;2.90;2.60;;;20.80;29.50;;;;;;2265318;61;20361;-60
2020/12/13 01:54:37;0.00;0.00;0.62;0.00;0.00;0.62;2.37;2.10;;;20.70;29.50;;;;;;2265237;61;20386;-59
2020/12/13 01:57:23;0.00;0.00;0.62;0.00;0.00;0.62;2.60;2.40;;;20.80;29.50;;;;;;2265319;61;20582;-60
2020/12/13 02:00:11;0.00;0.00;0.62;0.00;0.00;0.62;1.90;1.70;;;20.70;29.50;;;;;;2265208;61;20391;-59
2020/12/13 02:03:01;0.00;0.00;0.62;0.00;0.00;0.62;2.20;2.00;;;20.70;29.50;;;;;;2265506;61;20628;-60
2020/12/13 02:05:51;0.00;0.00;0.62;0.00;0.00;0.62;2.43;2.20;;;20.70;29.50;;;;;;2265394;61;20357;-60
2020/12/13 02:08:40;0.00;0.00;0.62;0.00;0.00;0.62;3.17;2.20;;;20.80;29.60;;;;;;2265132;61;20440;-60
2020/12/13 02:11:27;0.00;0.00;0.62;0.00;0.00;0.62;2.87;2.20;;;20.80;29.60;;;;;;2265127;61;20365;-60
2020/12/13 02:14:11;0.00;0.00;0.62;0.00;0.00;0.62;4.13;2.73;;;20.80;29.60;;;;;;2266137;61;20385;-60
2020/12/13 02:16:56;0.00;0.00;0.62;0.00;0.00;0.62;2.90;1.87;;;20.80;29.60;;;;;;2266127;61;20381;-60
2020/12/13 02:19:41;0.00;0.00;0.62;0.00;0.00;0.62;1.67;1.57;;;20.80;29.60;;;;;;2266067;61;20415;-60
2020/12/13 02:22:26;0.00;0.00;0.62;0.00;0.00;0.62;2.70;2.30;;;20.80;29.60;;;;;;2266303;61;20361;-60
2020/12/13 02:25:13;0.00;0.00;0.62;0.00;0.00;0.62;2.43;2.10;;;20.80;29.60;;;;;;2266234;61;20574;-60
2020/12/13 02:27:58;0.00;0.00;0.62;0.00;0.00;0.62;2.70;2.40;;;20.80;29.60;;;;;;2265911;61;20377;-60
2020/12/13 02:30:43;0.00;0.00;0.62;0.00;0.00;0.62;3.30;2.53;;;20.80;29.60;;;;;;2266200;61;20400;-60
2020/12/13 02:33:28;0.00;0.00;0.62;0.00;0.00;0.62;3.33;2.27;;;20.80;29.60;;;;;;2266251;61;20420;-60
2020/12/13 02:36:13;0.00;0.00;0.62;0.00;0.00;0.62;3.30;3.00;;;20.80;29.60;;;;;;2266124;61;20360;-62
2020/12/13 02:38:59;0.00;0.00;0.62;0.00;0.00;0.62;3.10;2.80;;;20.80;29.60;;;;;;2266161;61;20419;-59
2020/12/13 02:41:57;0.00;0.00;0.62;0.00;0.00;0.62;5.53;3.70;;;20.80;29.60;;;;;;2266008;61;20366;-59
2020/12/13 02:44:41;0.00;0.00;0.62;0.00;0.00;0.62;6.43;4.80;;;20.80;29.60;;;;;;2266263;61;20354;-59
2020/12/13 02:47:26;0.00;0.00;0.62;0.00;0.00;0.62;7.03;4.13;;;20.80;29.60;;;;;;2266063;61;20362;-61
2020/12/13 02:50:11;0.00;0.00;0.62;0.00;0.00;0.62;5.20;4.63;;;20.80;29.60;;;;;;2265918;61;20377;-63
2020/12/13 02:52:56;0.00;0.00;0.62;0.00;0.00;0.62;5.23;4.50;;;20.80;29.50;;;;;;2266067;61;20408;-66
2020/12/13 02:55:43;0.00;0.00;0.62;0.00;0.00;0.62;5.90;5.00;;;20.80;29.50;;;;;;2266179;61;20357;-60
2020/12/13 02:58:28;0.00;0.00;0.62;0.00;0.00;0.62;5.33;4.70;;;20.80;29.40;;;;;;2266312;61;20389;-64
2020/12/13 03:01:12;0.00;0.00;0.62;0.00;0.00;0.62;6.40;4.80;;;20.80;29.40;;;;;;2266158;61;20366;-61
2020/12/13 03:03:57;0.00;0.00;0.62;0.00;0.00;0.62;18.90;4.83;;;20.80;29.40;;;;;;2265928;61;20373;-62
2020/12/13 03:06:42;0.00;0.00;0.62;0.00;0.00;0.62;7.13;5.80;;;20.80;29.40;;;;;;2265955;61;20361;-61
2020/12/13 03:09:26;0.00;0.00;0.62;0.00;0.00;0.62;6.70;6.10;;;20.80;29.40;;;;;;2266148;61;20639;-61
2020/12/13 03:12:12;0.00;0.00;0.62;0.00;0.00;0.62;7.90;5.60;;;20.80;29.40;;;;;;2265857;61;20361;-62
2020/12/13 03:14:56;0.00;0.00;0.62;0.00;0.00;0.62;9.37;6.50;;;20.70;29.30;;;;;;2266063;61;20393;-61
2020/12/13 03:17:41;0.00;0.00;0.62;0.00;0.00;0.62;6.30;5.70;;;20.70;29.30;;;;;;2265919;61;20350;-64
2020/12/13 03:20:25;0.00;0.00;0.62;0.00;0.00;0.62;6.57;5.70;;;20.70;29.20;;;;;;2265891;61;20392;-64
2020/12/13 03:23:10;0.00;0.00;0.62;0.00;0.00;0.62;7.10;6.40;;;20.70;29.80;;;;;;2266098;61;20377;-63
2020/12/13 03:25:54;0.00;0.00;0.62;0.00;0.00;0.62;7.00;6.30;;;20.70;29.20;;;;;;2265825;61;20381;-62
2020/12/13 03:28:40;0.00;0.00;0.62;0.00;0.00;0.62;8.30;6.43;;;20.70;29.20;;;;;;2265964;61;20381;-63
2020/12/13 03:31:25;0.00;0.00;0.62;0.00;0.00;0.62;7.03;5.97;;;20.70;29.30;;;;;;2265986;61;20369;-62
2020/12/13 03:34:09;0.00;0.00;0.62;0.00;0.00;0.62;8.13;6.47;;;20.70;29.30;;;;;;2265738;61;20404;-62
2020/12/13 03:36:54;0.00;0.00;0.62;0.00;0.00;0.62;6.80;6.13;;;20.70;29.20;;;;;;2265974;61;20365;-61
2020/12/13 03:39:38;0.00;0.00;0.62;0.00;0.00;0.62;7.00;6.30;;;20.70;29.20;;;;;;2266016;61;20450;-62
2020/12/13 03:42:23;0.00;0.00;0.62;0.00;0.00;0.62;5.83;5.13;;;20.60;29.20;;;;;;2265754;61;20757;-62
2020/12/13 03:45:10;0.00;0.00;0.62;0.00;0.00;0.62;6.47;5.87;;;20.60;29.20;;;;;;2266026;61;20429;-64
2020/12/13 03:47:54;0.00;0.00;0.62;0.00;0.00;0.62;8.33;6.97;;;20.60;29.20;;;;;;2265673;61;20393;-62
2020/12/13 03:50:39;0.00;0.00;0.62;0.00;0.00;0.62;10.07;7.27;;;20.60;29.20;;;;;;2265905;61;20444;-61
2020/12/13 03:53:23;0.00;0.00;0.62;0.00;0.00;0.62;7.67;6.70;;;20.60;29.20;;;;;;2265922;61;20432;-62
2020/12/13 03:56:08;0.00;0.00;0.62;0.00;0.00;0.62;7.10;6.33;;;20.60;29.20;;;;;;2265575;61;20358;-63
2020/12/13 03:58:53;0.00;0.00;0.62;0.00;0.00;0.62;7.60;6.87;;;20.50;29.10;;;;;;2265964;61;20475;-63
2020/12/13 04:01:38;0.00;0.00;0.62;0.00;0.00;0.62;8.50;7.00;;;20.50;29.10;;;;;;2265976;61;20360;-63
2020/12/13 04:04:23;0.00;0.00;0.62;0.00;0.00;0.62;7.50;6.80;;;20.50;29.60;;;;;;2265618;61;20420;-63
2020/12/13 04:07:07;0.00;0.00;0.62;0.00;0.00;0.62;7.90;7.07;;;20.50;29.10;;;;;;2265844;61;20377;-62
2020/12/13 04:09:52;0.00;0.00;0.62;0.00;0.00;0.62;7.37;6.67;;;20.50;29.10;;;;;;2265842;61;20393;-62
2020/12/13 04:12:37;0.00;0.00;0.62;0.00;0.00;0.62;8.37;7.40;;;20.50;29.20;;;;;;2265840;61;20360;-61
2020/12/13 04:15:21;0.00;0.00;0.62;0.00;0.00;0.62;7.87;7.10;;;20.50;29.10;;;;;;2266091;61;20565;-64
2020/12/13 04:18:07;0.00;0.00;0.62;0.00;0.00;0.62;7.47;6.77;;;20.50;29.20;;;;;;2265532;61;20382;-64
2020/12/13 04:20:52;0.00;0.00;0.62;0.00;0.00;0.62;8.43;7.53;;;20.50;29.20;;;;;;2265944;61;20468;-62
2020/12/13 04:23:36;0.00;0.00;0.62;0.00;0.00;0.62;7.43;6.70;;;20.40;29.10;;;;;;2265925;61;20396;-62
2020/12/13 04:26:21;0.00;0.00;0.62;0.00;0.00;0.62;7.27;6.27;;;20.40;29.10;;;;;;2265524;61;20361;-62
2020/12/13 04:29:06;0.00;0.00;0.62;0.00;0.00;0.62;8.20;7.03;;;20.40;29.10;;;;;;2265871;61;20487;-65
2020/12/13 04:31:50;0.00;0.00;0.62;0.00;0.00;0.62;7.63;6.60;;;20.40;29.10;;;;;;2265752;61;20713;-62
2020/12/13 04:34:36;0.00;0.00;0.62;0.00;0.00;0.62;10.97;7.40;;;20.40;29.10;;;;;;2265756;61;20381;-63
2020/12/13 04:37:23;0.00;0.00;0.62;0.00;0.00;0.62;8.50;6.30;;;20.40;29.10;;;;;;2265653;61;20358;-63
2020/12/13 04:40:07;0.00;0.00;0.62;0.00;0.00;0.62;7.40;6.70;;;20.40;29.10;;;;;;2265620;61;20365;-62
2020/12/13 04:42:53;0.00;0.00;0.62;0.00;0.00;0.62;7.53;6.70;;;20.40;29.20;;;;;;2265811;61;20660;-60
2020/12/13 04:45:38;0.00;0.00;0.62;0.00;0.00;0.62;7.60;6.30;;;20.30;29.10;;;;;;2265767;61;20361;-62
2020/12/13 04:48:23;0.00;0.00;0.62;0.00;0.00;0.62;8.23;7.40;;;20.40;29.20;;;;;;2265478;61;20461;-62
2020/12/13 04:51:10;0.00;0.00;0.62;0.00;0.00;0.62;7.83;6.90;;;20.30;29.00;;;;;;2265702;61;20358;-61
2020/12/13 04:54:04;0.00;0.00;0.62;0.00;0.00;0.62;8.23;7.43;;;20.30;29.10;;;;;;2265733;61;20389;-59
2020/12/13 04:56:51;0.00;0.00;0.62;0.00;0.00;0.62;7.97;7.27;;;20.30;29.10;;;;;;2265649;61;20397;-63
2020/12/13 04:59:37;0.00;0.00;0.62;0.00;0.00;0.62;7.03;6.20;;;20.30;29.10;;;;;;2265688;61;20598;-63
2020/12/13 05:02:22;0.00;0.00;0.62;0.00;0.00;0.62;7.70;7.00;;;20.30;29.10;;;;;;2265635;61;20420;-64
2020/12/13 05:05:10;0.00;0.00;0.62;0.00;0.00;0.62;7.17;5.90;;;20.30;29.10;;;;;;2265771;61;20368;-64
2020/12/13 05:07:55;0.00;0.00;0.62;0.00;0.00;0.62;8.10;7.17;;;20.30;29.10;;;;;;2265552;61;20384;-65
2020/12/13 05:10:40;0.00;0.00;0.62;0.00;0.00;0.62;8.23;7.43;;;20.30;29.10;;;;;;2265483;61;20366;-63
2020/12/13 05:13:25;0.00;0.00;0.62;0.00;0.00;0.62;9.90;7.50;;;20.30;29.10;;;;;;2265734;61;20761;-61
2020/12/13 05:16:10;0.00;0.00;0.62;0.00;0.00;0.62;8.13;7.30;;;20.20;29.00;;;;;;2265577;61;20376;-61
2020/12/13 05:18:55;0.00;0.00;0.62;0.00;0.00;0.62;7.60;6.63;;;20.20;29.00;;;;;;2265548;61;20464;-64
2020/12/13 05:21:43;0.00;0.00;0.62;0.00;0.00;0.62;9.40;7.80;;;20.20;29.00;;;;;;2265687;61;20445;-65
2020/12/13 05:24:29;0.00;0.00;0.62;0.00;0.00;0.62;8.40;7.43;;;20.20;29.00;;;;;;2265491;61;20706;-60
2020/12/13 05:27:18;0.00;0.00;0.62;0.00;0.00;0.62;7.17;6.47;;;20.20;29.00;;;;;;2265610;61;20741;-61
2020/12/13 05:30:04;0.00;0.00;0.62;0.00;0.00;0.62;8.13;6.87;;;20.20;29.00;;;;;;2265600;61;20477;-61
2020/12/13 05:32:49;0.00;0.00;0.62;0.00;0.00;0.62;8.47;7.60;;;20.20;29.00;;;;;;2265415;61;20362;-63
2020/12/13 05:35:33;0.00;0.00;0.62;0.00;0.00;0.62;7.37;6.60;;;20.20;29.00;;;;;;2265692;61;20345;-64
2020/12/13 05:38:18;0.00;0.00;0.62;0.00;0.00;0.62;9.17;7.60;;;20.20;29.00;;;;;;2265565;61;20377;-64
2020/12/13 05:41:05;0.00;0.00;0.62;0.00;0.00;0.62;8.63;7.80;;;20.20;29.00;;;;;;2265743;61;20368;-63
2020/12/13 05:44:01;0.00;0.00;0.62;0.00;0.00;0.62;9.17;6.90;;;20.10;29.00;;;;;;2265631;61;20358;-63
2020/12/13 05:47:02;0.00;0.00;0.62;0.00;0.00;0.62;8.90;7.47;;;20.20;29.10;;;;;;2265547;61;20354;-65
2020/12/13 05:50:36;0.00;0.00;0.62;0.00;0.00;0.62;8.50;7.60;;;20.10;29.00;;;;;;2266281;61;20384;-61
2020/12/13 05:52:55;0.00;0.00;0.62;0.00;0.00;0.62;8.57;6.27;;;20.10;29.00;;;;;;2266188;61;20369;-64
2020/12/13 05:55:40;0.00;0.00;0.62;0.00;0.00;0.62;8.57;7.10;;;20.10;29.00;;;;;;2262997;61;20508;-61
2020/12/13 05:58:26;0.00;0.00;0.62;0.00;0.00;0.62;8.63;7.60;;;20.10;29.00;;;;;;2266202;61;20373;-61
2020/12/13 06:01:15;0.00;0.00;0.62;0.00;0.00;0.62;11.20;7.70;;;20.10;29.00;;;;;;2266184;61;20385;-63
2020/12/13 06:04:06;0.00;0.00;0.62;0.00;0.00;0.62;8.50;7.67;;;20.10;29.00;;;;;;2266259;61;20384;-63
2020/12/13 06:06:55;0.00;0.00;0.62;0.00;0.00;0.62;8.00;6.73;;;20.10;29.00;;;;;;2266243;61;20393;-63
2020/12/13 06:09:44;0.00;0.00;0.62;0.00;0.00;0.62;7.97;6.70;;;20.00;29.00;;;;;;2266107;61;20401;-62
2020/12/13 06:12:30;0.00;0.00;0.62;0.00;0.00;0.62;8.07;7.27;;;20.10;29.00;;;;;;2266298;61;20353;-61
2020/12/13 06:15:16;0.00;0.00;0.62;0.00;0.00;0.62;7.40;6.80;;;20.10;29.00;;;;;;2266461;61;20384;-62
2020/12/13 06:18:05;0.00;0.00;0.62;0.00;0.00;0.62;8.23;7.40;;;20.00;29.00;;;;;;2266139;61;20389;-63
2020/12/13 06:20:53;0.00;0.00;0.62;0.00;0.00;0.62;7.87;6.87;;;20.00;29.00;;;;;;2266664;61;20558;-65
2020/12/13 06:23:39;0.00;0.00;0.62;0.00;0.00;0.62;8.57;7.20;;;20.00;29.00;;;;;;2266261;61;20477;-62
2020/12/13 06:26:25;0.00;0.00;0.62;0.00;0.00;0.62;9.13;7.77;;;20.00;29.00;;;;;;2266273;61;20353;-62
2020/12/13 06:29:09;0.00;0.00;0.62;0.00;0.00;0.62;8.37;7.53;;;20.00;29.00;;;;;;2266378;61;20552;-60
2020/12/13 06:31:56;0.00;0.00;0.62;0.00;0.00;0.62;8.30;7.50;;;20.00;29.00;;;;;;2266094;61;20354;-63
2020/12/13 06:34:43;0.00;0.00;0.62;0.00;0.00;0.62;7.87;7.07;;;19.90;29.00;;;;;;2266324;61;20393;-61
2020/12/13 06:37:29;0.00;0.00;0.62;0.00;0.00;0.62;8.27;7.23;;;20.00;29.00;;;;;;2266232;61;20370;-62
2020/12/13 06:40:20;0.00;0.00;0.62;0.00;0.00;0.62;8.13;7.33;;;20.00;29.00;;;;;;2266153;61;20362;-60
2020/12/13 06:43:08;0.00;0.00;0.62;0.00;0.00;0.62;12.80;6.90;;;19.90;29.50;;;;;;2266366;61;20353;-62
2020/12/13 06:46:12;0.00;0.00;0.62;0.00;0.00;0.62;8.53;7.70;;;19.90;29.00;;;;;;2266133;61;20775;-65
2020/12/13 06:48:58;0.00;0.00;0.62;0.00;0.00;0.62;9.57;7.63;;;19.90;29.00;;;;;;2266359;61;20879;-61
2020/12/13 06:51:45;0.00;0.00;0.62;0.00;0.00;0.62;8.20;7.07;;;19.90;29.00;;;;;;2266294;61;20444;-60
2020/12/13 06:54:30;0.00;0.00;0.62;0.00;0.00;0.62;10.60;7.60;;;19.90;29.00;;;;;;2266072;61;20604;-62
2020/12/13 06:57:17;0.00;0.00;0.62;0.00;0.00;0.62;7.97;7.17;;;19.90;29.50;;;;;;2266277;61;20403;-62
2020/12/13 07:00:06;0.00;0.00;0.62;0.00;0.00;0.62;8.50;7.43;;;19.90;29.00;;;;;;2266148;61;20357;-61
2020/12/13 07:02:56;0.00;0.00;0.62;0.00;0.00;0.62;8.97;7.40;;;19.90;29.00;;;;;;2266326;61;20397;-63
2020/12/13 07:05:55;0.00;0.00;0.62;0.00;0.00;0.62;8.47;7.57;;;19.80;29.00;;;;;;2266315;61;20353;-60
2020/12/13 07:08:40;0.00;0.00;0.62;0.00;0.00;0.62;8.10;7.30;;;19.90;29.00;;;;;;2265946;61;20601;-62
2020/12/13 07:11:27;0.00;0.00;0.62;0.00;0.00;0.62;7.43;6.67;;;19.80;29.00;;;;;;2266181;61;20358;-64
2020/12/13 07:14:13;0.00;0.00;0.62;0.00;0.00;0.62;8.10;7.30;;;19.80;29.00;;;;;;2265959;61;20381;-60
2020/12/13 07:17:08;0.00;0.00;0.62;0.00;0.00;0.62;9.13;7.53;;;19.80;29.00;;;;;;2265893;61;20354;-62
2020/12/13 07:19:55;0.00;0.00;0.62;0.00;0.00;0.62;9.73;8.33;;;19.80;29.00;;;;;;2266237;61;20374;-64
2020/12/13 07:22:40;0.00;0.00;0.62;0.00;0.00;0.62;9.00;7.50;;;19.80;29.00;;;;;;2265961;61;20621;-61
2020/12/13 07:25:25;0.00;0.00;0.62;0.00;0.00;0.62;11.90;8.17;;;19.80;29.00;;;;;;2266232;61;20381;-63
2020/12/13 07:28:11;0.00;0.00;0.62;0.00;0.00;0.62;9.20;8.30;;;19.80;29.00;;;;;;2266102;61;20377;-63
2020/12/13 07:30:57;0.00;0.00;0.62;0.00;0.00;0.62;9.30;7.53;;;19.80;29.00;;;;;;2265905;61;20392;-63
2020/12/13 07:33:41;0.00;0.00;0.62;0.00;0.00;0.62;9.10;7.27;;;19.70;29.00;;;;;;2266148;61;20385;-64
2020/12/13 07:36:26;0.00;0.00;0.62;0.00;0.00;0.62;9.73;8.17;;;19.80;29.10;;;;;;2266106;61;20362;-61
2020/12/13 07:39:13;0.00;0.00;0.62;0.00;0.00;0.62;9.10;7.87;;;19.80;29.10;;;;;;2266041;61;20802;-63
2020/12/13 07:41:58;0.00;0.00;0.62;0.00;0.00;0.62;9.57;7.33;;;19.70;29.10;;;;;;2266176;61;20718;-61
2020/12/13 07:44:57;0.00;0.00;0.62;0.00;0.00;0.62;8.87;7.97;;;19.70;29.60;;;;;;2265895;61;20722;-63
2020/12/13 07:47:49;0.00;0.00;0.62;0.00;0.00;0.62;7.50;6.80;;;19.70;29.10;;;;;;2266034;61;20357;-62
2020/12/13 07:50:44;0.00;0.00;0.62;0.00;0.00;0.62;8.17;6.50;;;19.70;29.10;;;;;;2266092;61;20470;-62
2020/12/13 07:53:29;0.00;0.00;0.62;0.00;0.00;0.62;8.43;7.53;;;19.70;29.10;;;;;;2265859;61;20353;-64
2020/12/13 07:56:25;0.00;0.00;0.62;0.00;0.00;0.62;8.90;7.00;;;19.70;29.10;;;;;;2266075;61;20392;-61
2020/12/13 07:59:16;0.00;0.00;0.62;0.00;0.00;0.62;8.40;6.60;;;19.70;29.10;;;;;;2266065;61;20605;-64
2020/12/13 08:02:00;0.00;0.00;0.62;0.00;0.00;0.62;8.70;7.80;;;19.70;29.20;;;;;;2266100;61;20388;-64
2020/12/13 08:04:45;0.00;0.00;0.62;0.00;0.00;0.62;6.90;6.20;;;19.70;29.20;;;;;;2266021;61;20468;-62
2020/12/13 08:07:30;0.00;0.00;0.62;0.00;0.00;0.62;11.53;6.90;;;19.60;29.10;;;;;;2265837;61;20686;-64
2020/12/13 08:10:17;0.00;0.00;0.62;0.00;0.00;0.62;8.23;7.40;;;19.60;29.10;;;;;;2266035;61;20365;-64
2020/12/13 08:13:07;0.00;0.00;0.62;0.00;0.00;0.62;7.87;7.07;;;19.60;29.20;;;;;;2265465;61;20461;-60
2020/12/13 08:16:00;0.00;0.00;0.62;0.00;0.00;0.62;7.50;6.43;;;19.60;29.10;;;;;;2265755;61;20706;-64
2020/12/13 08:18:49;0.00;0.00;0.62;0.00;0.00;0.62;7.83;7.03;;;19.60;29.20;;;;;;2265984;61;20374;-64
2020/12/13 08:21:43;0.00;0.00;0.62;0.00;0.00;0.62;7.20;6.50;;;19.60;29.20;;;;;;2265966;61;20429;-61
2020/12/13 08:24:29;0.00;0.00;0.62;0.00;0.00;0.62;7.80;7.00;;;19.60;29.20;;;;;;2266049;61;20349;-62
2020/12/13 08:27:14;0.00;0.00;0.62;0.00;0.00;0.62;8.07;6.83;;;19.60;29.20;;;;;;2265590;61;20366;-62
2020/12/13 08:30:01;0.00;0.00;0.62;0.00;0.00;0.62;8.40;7.53;;;19.60;29.20;;;;;;2265764;61;20353;-61
2020/12/13 08:32:47;0.00;0.00;0.62;0.00;0.00;0.62;7.60;6.07;;;19.60;29.20;;;;;;2266037;61;20676;-60
2020/12/13 08:35:32;0.00;0.00;0.62;0.00;0.00;0.62;7.53;6.83;;;19.60;29.20;;;;;;2265988;61;20423;-64
2020/12/13 08:38:17;0.00;0.00;0.62;0.00;0.00;0.62;8.23;7.00;;;19.60;29.20;;;;;;2265680;61;20385;-64
2020/12/13 08:41:01;0.00;0.00;0.62;0.00;0.00;0.62;9.50;7.03;;;19.60;29.20;;;;;;2265930;61;20726;-64
2020/12/13 08:43:46;0.00;0.00;0.62;0.00;0.00;0.62;8.87;7.50;;;19.60;29.30;;;;;;2265936;61;20418;-64
2020/12/13 08:46:38;0.00;0.00;0.62;0.00;0.00;0.62;11.93;8.60;;;19.60;29.30;;;;;;2265838;61;20369;-64
2020/12/13 08:49:29;0.00;0.00;0.62;0.00;0.00;0.62;6.90;6.20;;;19.50;29.30;;;;;;2265929;61;20381;-62
2020/12/13 08:52:17;0.00;0.00;0.62;0.00;0.00;0.62;9.10;7.10;;;19.60;29.30;;;;;;2262578;61;20425;-61
2020/12/13 08:55:06;0.00;0.00;0.62;0.00;0.00;0.62;7.23;6.53;;;19.60;29.30;;;;;;2265802;61;20409;-63
2020/12/13 08:57:59;0.00;0.00;0.62;0.00;0.00;0.62;22.50;10.10;;;19.50;29.30;;;;;;2265819;61;20349;-59
2020/12/13 09:00:45;0.00;0.00;0.62;0.00;0.00;0.62;10.33;7.67;;;19.50;29.30;;;;;;2265808;61;20610;-61
2020/12/13 09:03:31;0.00;0.00;0.62;0.00;0.00;0.62;8.37;7.03;;;19.50;29.40;;;;;;2265830;61;20765;-57
2020/12/13 09:06:25;0.00;0.00;0.62;0.00;0.00;0.62;11.00;6.03;;;19.50;29.40;;;;;;2265771;61;20765;-59
2020/12/13 09:09:11;0.00;0.00;0.62;0.00;0.00;0.62;10.40;7.50;;;19.50;29.40;;;;;;2265881;61;20373;-59
2020/12/13 09:11:56;0.00;0.00;0.62;0.00;0.00;0.62;8.30;6.73;;;19.50;29.40;;;;;;2265835;61;20624;-62
2020/12/13 09:14:40;0.00;0.00;0.62;0.00;0.00;0.62;9.17;6.80;;;19.50;29.40;;;;;;2265775;61;20461;-61
2020/12/13 09:17:25;0.00;0.00;0.62;0.00;0.00;0.62;9.93;6.80;;;19.50;29.50;;;;;;2265826;61;20397;-59
2020/12/13 09:20:11;0.00;0.00;0.62;0.00;0.00;0.62;10.00;6.97;;;19.50;29.50;;;;;;2265955;61;20357;-58
2020/12/13 09:23:02;0.00;0.00;0.62;0.00;0.00;0.62;7.77;6.30;;;19.50;29.50;;;;;;2265543;61;20365;-62
2020/12/13 09:25:48;0.00;0.00;0.62;0.00;0.00;0.62;9.00;7.70;;;19.50;29.60;;;;;;2265922;61;20350;-62
2020/12/13 09:28:33;0.00;0.00;0.62;0.00;0.00;0.62;12.73;7.20;;;19.50;29.60;;;;;;2265682;61;20380;-60
2020/12/13 09:31:18;0.00;0.00;0.62;0.00;0.00;0.62;7.60;6.03;;;19.60;29.70;;;;;;2265776;61;20718;-63
2020/12/13 09:34:02;0.00;0.00;0.62;0.00;0.00;0.62;10.63;6.50;;;19.60;29.70;;;;;;2265947;61;20376;-60
2020/12/13 09:36:48;0.00;0.00;0.62;0.00;0.00;0.62;12.90;8.23;;;19.60;29.70;;;;;;2265564;61;20357;-60
2020/12/13 09:39:33;0.00;0.00;0.62;0.00;0.00;0.62;8.33;7.40;;;19.60;29.70;;;;;;2265899;61;20385;-60
2020/12/13 09:42:17;0.00;0.00;0.62;0.00;0.00;0.62;7.70;6.57;;;19.60;29.70;;;;;;2265902;61;20465;-60
2020/12/13 09:45:02;0.00;0.00;0.62;0.00;0.00;0.62;7.43;6.63;;;19.60;29.80;;;;;;2265591;61;20354;-60
2020/12/13 09:47:47;0.00;0.00;0.62;0.00;0.00;0.62;7.53;6.73;;;19.60;29.80;;;;;;2265745;61;20354;-60
2020/12/13 09:50:32;0.00;0.00;0.62;0.00;0.00;0.62;8.63;6.60;;;19.60;29.80;;;;;;2265640;61;20400;-60
2020/12/13 09:53:17;0.00;0.00;0.62;0.00;0.00;0.62;10.13;6.90;;;19.60;29.80;;;;;;2265731;61;20694;-59
2020/12/13 09:56:02;0.00;0.00;0.62;0.00;0.00;0.62;11.10;7.80;;;19.60;29.70;;;;;;2265844;61;20353;-59
2020/12/13 09:58:47;0.00;0.00;0.62;0.00;0.00;0.62;8.67;6.87;;;19.60;29.70;;;;;;2265518;61;20373;-60
2020/12/13 10:01:32;0.00;0.00;0.62;0.00;0.00;0.62;9.73;7.30;;;19.60;29.70;;;;;;2265824;61;20399;-60
2020/12/13 10:04:18;0.00;0.00;0.62;0.00;0.00;0.62;7.70;6.80;;;19.60;29.70;;;;;;2265796;61;20725;-60
2020/12/13 10:07:27;0.00;0.00;0.62;0.00;0.00;0.62;8.73;7.30;;;19.60;29.70;;;;;;2265413;61;20401;-60
2020/12/13 10:10:12;0.00;0.00;0.62;0.00;0.00;0.62;8.90;7.33;;;19.60;29.70;;;;;;2265464;61;20485;-60
2020/12/13 10:12:57;0.00;0.00;0.62;0.00;0.00;0.62;9.17;7.07;;;19.60;29.70;;;;;;2265514;61;20365;-62
2020/12/13 10:15:42;0.00;0.00;0.62;0.00;0.00;0.62;9.17;7.00;;;19.60;29.70;;;;;;2265697;61;20601;-62
2020/12/13 10:18:27;0.00;0.00;0.62;0.00;0.00;0.62;9.90;7.60;;;19.60;30.20;;;;;;2265549;61;20382;-62
2020/12/13 10:21:11;0.00;0.00;0.62;0.00;0.00;0.62;9.93;7.93;;;19.60;29.80;;;;;;2265501;61;20744;-58
2020/12/13 10:23:57;0.00;0.00;0.62;0.00;0.00;0.62;8.40;6.13;;;19.60;29.90;;;;;;2265779;61;20416;-61
2020/12/13 10:26:43;0.00;0.00;0.62;0.00;0.00;0.62;10.90;7.10;;;19.60;29.90;;;;;;2265527;61;20353;-60
2020/12/13 10:29:28;0.00;0.00;0.62;0.00;0.00;0.62;5.90;5.27;;;19.70;30.00;;;;;;2265495;61;20420;-60
2020/12/13 10:32:13;0.00;0.00;0.62;0.00;0.00;0.62;7.03;6.27;;;19.70;30.00;;;;;;2265673;61;20392;-60
2020/12/13 10:34:57;0.00;0.00;0.62;0.00;0.00;0.62;7.20;6.20;;;19.60;29.90;;;;;;2265789;61;20597;-60
2020/12/13 10:37:42;0.00;0.00;0.62;0.00;0.00;0.62;8.07;6.83;;;19.70;30.00;;;;;;2266277;61;20404;-60
2020/12/13 10:40:27;0.00;0.00;0.62;0.00;0.00;0.62;7.37;6.57;;;19.60;29.90;;;;;;2266481;61;20366;-61
2020/12/13 10:43:07;0.00;0.00;0.62;0.00;0.00;0.62;7.90;6.07;;;19.70;30.00;;;;;;2269328;56;20414;-61
2020/12/13 10:45:52;0.00;0.00;0.62;0.00;0.00;0.62;6.47;5.83;;;19.70;30.10;;;;;;2262302;61;20346;-58
2020/12/13 10:48:37;0.00;0.00;0.62;0.00;0.00;0.62;12.90;5.47;;;19.70;30.20;;;;;;2262289;61;20378;-59
2020/12/13 10:51:21;0.00;0.00;0.62;0.00;0.00;0.62;7.60;5.40;;;19.70;30.20;;;;;;2262145;61;20382;-62
2020/12/13 10:54:06;0.00;0.00;0.62;0.00;0.00;0.62;7.00;5.50;;;19.70;30.40;;;;;;2262358;61;20462;-61
2020/12/13 10:56:51;0.00;0.00;0.62;0.00;0.00;0.62;6.40;5.13;;;19.80;30.30;;;;;;2262268;61;20567;-60